createdAt,value
2022-08-31T00:00:58.254Z,1.40
2022-08-31T00:03:44.363Z,1.40
2022-08-31T00:06:11.513Z,1.50
2022-08-31T00:08:38.663Z,1.40
2022-08-31T00:11:09.811Z,1.50
2022-08-31T00:13:37.675Z,1.30
2022-08-31T00:16:04.835Z,1.50
2022-08-31T00:18:32.042Z,1.30
2022-08-31T00:20:59.416Z,1.40
2022-08-31T00:23:26.740Z,1.50
2022-08-31T00:25:53.935Z,1.40
2022-08-31T00:28:21.434Z,1.40
2022-08-31T00:30:48.643Z,1.50
2022-08-31T00:33:16.203Z,1.30
2022-08-31T00:35:44.036Z,1.40
2022-08-31T00:38:12.125Z,1.50
2022-08-31T00:40:44.563Z,1.37
2022-08-31T00:43:12.710Z,1.20
2022-08-31T00:45:39.971Z,1.40
2022-08-31T00:48:07.204Z,1.23
2022-08-31T00:50:34.471Z,1.33
2022-08-31T00:53:01.860Z,1.30
2022-08-31T00:55:36.353Z,1.10
2022-08-31T00:58:05.975Z,1.30
2022-08-31T01:00:33.398Z,1.13
2022-08-31T01:03:01.921Z,1.40
2022-08-31T01:05:29.855Z,1.40
2022-08-31T01:07:57.731Z,1.43
2022-08-31T01:10:26.072Z,1.33
2022-08-31T01:12:55.328Z,1.53
2022-08-31T01:15:22.575Z,1.30
2022-08-31T01:17:50.160Z,1.47
2022-08-31T01:20:32.365Z,1.27
2022-08-31T01:23:04.554Z,1.50
2022-08-31T01:25:33.752Z,1.70
2022-08-31T01:28:03.036Z,1.60
2022-08-31T01:30:30.237Z,1.30
2022-08-31T01:32:57.432Z,1.40
2022-08-31T01:35:24.633Z,1.50
2022-08-31T01:37:52.144Z,1.40
2022-08-31T01:40:19.449Z,1.33
2022-08-31T01:42:47.018Z,1.40
2022-08-31T01:45:14.253Z,1.40
2022-08-31T01:47:41.751Z,1.43
2022-08-31T01:50:09.176Z,1.50
2022-08-31T01:52:37.700Z,1.40
2022-08-31T01:55:06.223Z,1.70
2022-08-31T01:57:34.670Z,1.37
2022-08-31T02:00:08.031Z,1.50
2022-08-31T02:02:35.309Z,1.37
2022-08-31T02:05:02.542Z,1.40
2022-08-31T02:07:29.737Z,1.33
2022-08-31T02:09:56.951Z,1.43
2022-08-31T02:12:24.151Z,1.43
2022-08-31T02:14:51.604Z,1.50
2022-08-31T02:17:18.791Z,1.50
2022-08-31T02:19:46.004Z,1.50
2022-08-31T02:22:13.151Z,1.30
2022-08-31T02:24:40.369Z,1.57
2022-08-31T02:27:07.815Z,1.30
2022-08-31T02:29:34.964Z,1.37
2022-08-31T02:32:02.216Z,1.40
2022-08-31T02:34:29.437Z,1.70
2022-08-31T02:36:57.195Z,1.43
2022-08-31T02:39:25.205Z,1.40
2022-08-31T02:41:52.448Z,1.50
2022-08-31T02:44:19.591Z,1.50
2022-08-31T02:46:46.852Z,1.43
2022-08-31T02:49:14.279Z,1.63
2022-08-31T02:51:42.405Z,1.60
2022-08-31T02:54:09.951Z,1.50
2022-08-31T02:56:37.424Z,1.30
2022-08-31T02:59:04.856Z,1.50
2022-08-31T03:01:32.115Z,1.47
2022-08-31T03:04:00.916Z,1.40
2022-08-31T03:06:29.792Z,1.40
2022-08-31T03:08:57.343Z,1.50
2022-08-31T03:11:24.527Z,1.70
2022-08-31T03:13:55.217Z,1.50
2022-08-31T03:16:25.173Z,1.67
2022-08-31T03:18:52.657Z,1.50
2022-08-31T03:21:19.853Z,1.77
2022-08-31T03:23:47.005Z,1.60
2022-08-31T03:26:14.598Z,1.60
2022-08-31T03:28:41.812Z,1.57
2022-08-31T03:31:10.226Z,1.63
2022-08-31T03:33:37.834Z,1.60
2022-08-31T03:36:05.580Z,1.50
2022-08-31T03:38:33.116Z,1.60
2022-08-31T03:41:02.008Z,1.57
2022-08-31T03:43:29.308Z,1.43
2022-08-31T03:45:56.616Z,1.83
2022-08-31T03:48:23.835Z,1.60
2022-08-31T03:50:51.172Z,1.60
2022-08-31T03:53:22.651Z,1.80
2022-08-31T03:55:50.041Z,1.50
2022-08-31T03:58:17.196Z,1.63
2022-08-31T04:00:44.484Z,1.50
2022-08-31T04:03:11.847Z,1.60
2022-08-31T04:05:43.559Z,1.60
2022-08-31T04:08:11.161Z,1.63
2022-08-31T04:10:42.016Z,1.80
2022-08-31T04:13:09.263Z,1.40
2022-08-31T04:15:37.329Z,1.43
2022-08-31T04:18:04.840Z,0.57
2022-08-31T04:20:40.529Z,1.83
2022-08-31T04:23:08.091Z,1.50
2022-08-31T04:25:42.730Z,1.40
2022-08-31T04:28:11.111Z,1.57
2022-08-31T04:30:39.245Z,1.27
2022-08-31T04:33:06.429Z,1.43
2022-08-31T04:35:33.704Z,1.60
2022-08-31T04:38:00.926Z,1.50
2022-08-31T04:40:28.944Z,1.40
2022-08-31T04:42:56.142Z,1.70
2022-08-31T04:45:24.636Z,1.50
2022-08-31T04:47:52.185Z,1.40
2022-08-31T04:50:19.472Z,1.50
2022-08-31T04:53:03.199Z,1.60
2022-08-31T04:55:31.175Z,1.73
2022-08-31T04:57:58.340Z,1.60
2022-08-31T05:00:25.486Z,1.90
2022-08-31T05:02:54.186Z,2.03
2022-08-31T05:05:21.467Z,1.60
2022-08-31T05:07:48.876Z,1.77
2022-08-31T05:10:16.275Z,1.50
2022-08-31T05:12:44.440Z,1.70
2022-08-31T05:15:12.075Z,1.50
2022-08-31T05:17:39.268Z,1.60
2022-08-31T05:20:06.724Z,1.40
2022-08-31T05:22:33.969Z,1.50
2022-08-31T05:25:01.689Z,1.40
2022-08-31T05:27:28.879Z,1.47
2022-08-31T05:29:56.145Z,1.30
2022-08-31T05:32:23.283Z,1.50
2022-08-31T05:34:52.719Z,1.60
2022-08-31T05:37:19.887Z,1.60
2022-08-31T05:39:47.148Z,1.50
2022-08-31T05:42:15.494Z,1.33
2022-08-31T05:44:42.886Z,1.67
2022-08-31T05:47:10.221Z,1.40
2022-08-31T05:49:37.556Z,1.60
2022-08-31T05:52:08.567Z,1.50
2022-08-31T05:54:38.288Z,1.60
2022-08-31T05:57:05.524Z,1.70
2022-08-31T05:59:32.948Z,1.50
2022-08-31T06:02:00.654Z,1.50
2022-08-31T06:04:28.158Z,1.60
2022-08-31T06:06:55.632Z,1.60
2022-08-31T06:09:22.797Z,1.50
2022-08-31T06:11:51.354Z,1.50
2022-08-31T06:14:18.612Z,1.40
2022-08-31T06:16:46.039Z,1.50
2022-08-31T06:19:14.944Z,1.43
2022-08-31T06:21:50.153Z,1.50
2022-08-31T06:24:17.987Z,1.63
2022-08-31T06:26:58.464Z,1.40
2022-08-31T06:29:26.649Z,1.40
2022-08-31T06:31:53.957Z,1.83
2022-08-31T06:34:21.278Z,1.40
2022-08-31T06:36:48.573Z,1.60
2022-08-31T06:39:16.111Z,1.53
2022-08-31T06:41:43.365Z,1.70
2022-08-31T06:44:12.351Z,1.50
2022-08-31T06:46:39.949Z,1.57
2022-08-31T06:49:08.409Z,1.43
2022-08-31T06:51:37.889Z,1.30
2022-08-31T06:54:27.606Z,1.50
2022-08-31T06:56:54.487Z,1.40
2022-08-31T06:59:25.286Z,1.40
2022-08-31T07:01:55.119Z,1.50
2022-08-31T07:04:22.426Z,1.40
2022-08-31T07:06:49.689Z,1.30
2022-08-31T07:09:18.259Z,1.40
2022-08-31T07:11:46.947Z,1.43
2022-08-31T07:14:16.033Z,1.50
2022-08-31T07:16:44.068Z,1.60
2022-08-31T07:19:12.079Z,1.67
2022-08-31T07:21:44.086Z,1.80
2022-08-31T07:24:11.783Z,1.40
2022-08-31T07:26:44.946Z,1.60
2022-08-31T07:29:12.781Z,1.40
2022-08-31T07:31:49.212Z,1.40
2022-08-31T07:34:21.075Z,1.40
2022-08-31T07:37:07.483Z,1.60
2022-08-31T07:39:53.753Z,1.60
2022-08-31T07:42:26.220Z,1.37
2022-08-31T07:44:54.426Z,1.40
2022-08-31T07:47:22.817Z,1.50
2022-08-31T07:49:52.808Z,1.50
2022-08-31T07:52:21.857Z,1.40
2022-08-31T07:54:49.586Z,1.50
2022-08-31T07:57:18.896Z,1.40
2022-08-31T07:59:49.655Z,1.40
2022-08-31T08:02:17.722Z,1.57
2022-08-31T08:04:45.327Z,1.50
2022-08-31T08:07:13.175Z,1.30
2022-08-31T08:09:40.430Z,1.57
2022-08-31T08:12:08.003Z,1.47
2022-08-31T08:14:37.116Z,1.53
2022-08-31T08:17:05.276Z,1.60
2022-08-31T08:19:33.867Z,1.50
2022-08-31T08:22:03.485Z,1.50
2022-08-31T08:24:32.629Z,1.67
2022-08-31T08:27:00.208Z,1.60
2022-08-31T08:29:29.929Z,1.40
2022-08-31T08:32:01.109Z,1.20
2022-08-31T08:34:32.604Z,1.30
2022-08-31T08:37:00.357Z,1.27
2022-08-31T08:39:28.063Z,1.37
2022-08-31T08:41:57.875Z,1.40
2022-08-31T08:44:27.288Z,1.63
2022-08-31T08:46:56.142Z,1.30
2022-08-31T08:49:24.867Z,1.00
2022-08-31T08:51:57.254Z,1.10
2022-08-31T08:54:30.338Z,2.10
2022-08-31T08:56:57.989Z,1.40
2022-08-31T08:59:25.146Z,1.33
2022-08-31T09:01:54.136Z,1.27
2022-08-31T09:04:21.356Z,1.20
2022-08-31T09:06:54.641Z,1.20
2022-08-31T09:09:38.324Z,1.20
2022-08-31T09:12:12.572Z,1.20
2022-08-31T09:15:00.632Z,1.37
2022-08-31T09:17:46.548Z,1.20
2022-08-31T09:20:15.603Z,1.00
2022-08-31T09:22:48.557Z,1.00
2022-08-31T09:25:19.050Z,1.10
2022-08-31T09:28:00.147Z,1.08
2022-08-31T09:30:45.787Z,1.10
2022-08-31T09:33:21.290Z,0.80
2022-08-31T09:35:50.829Z,1.30
2022-08-31T09:38:32.507Z,1.30
2022-08-31T09:41:00.257Z,1.08
2022-08-31T09:43:35.090Z,0.93
2022-08-31T09:46:11.711Z,1.10
2022-08-31T09:48:44.162Z,2.45
2022-08-31T09:51:12.436Z,1.10
2022-08-31T09:54:01.847Z,1.00
2022-08-31T09:56:29.703Z,0.75
2022-08-31T09:59:01.694Z,1.05
2022-08-31T10:01:31.888Z,1.10
2022-08-31T10:04:09.455Z,1.00
2022-08-31T10:06:46.636Z,1.02
2022-08-31T10:09:26.601Z,0.80
2022-08-31T10:11:54.720Z,1.02
2022-08-31T10:14:26.528Z,0.75
2022-08-31T10:17:00.983Z,1.00
2022-08-31T10:19:32.718Z,1.20
2022-08-31T10:22:03.626Z,1.02
2022-08-31T10:24:39.136Z,1.00
2022-08-31T10:27:31.375Z,1.05
2022-08-31T10:30:17.049Z,1.05
2022-08-31T10:32:44.158Z,1.03
2022-08-31T10:35:22.905Z,1.20
2022-08-31T10:37:57.900Z,1.30
2022-08-31T10:40:25.875Z,1.30
2022-08-31T10:43:09.315Z,0.90
2022-08-31T10:45:42.263Z,0.90
2022-08-31T10:48:13.004Z,0.93
2022-08-31T10:50:52.443Z,0.83
2022-08-31T10:53:22.776Z,1.20
2022-08-31T10:55:58.607Z,1.10
2022-08-31T10:58:31.231Z,1.00
2022-08-31T11:01:02.946Z,0.80
2022-08-31T11:03:36.218Z,0.95
2022-08-31T11:06:12.739Z,0.90
2022-08-31T11:08:49.812Z,0.75
2022-08-31T11:11:19.711Z,1.20
2022-08-31T11:13:51.243Z,0.80
2022-08-31T11:16:27.508Z,0.77
2022-08-31T11:19:03.322Z,0.90
2022-08-31T11:21:45.259Z,1.00
2022-08-31T11:24:23.951Z,0.80
2022-08-31T11:26:53.391Z,0.80
2022-08-31T11:29:29.661Z,0.82
2022-08-31T11:32:20.196Z,1.13
2022-08-31T11:34:53.602Z,1.10
2022-08-31T11:37:39.626Z,0.98
2022-08-31T11:40:10.895Z,0.90
2022-08-31T11:42:40.930Z,1.10
2022-08-31T11:45:13.938Z,1.00
2022-08-31T11:47:43.383Z,0.95
2022-08-31T11:50:22.504Z,1.30
2022-08-31T11:52:53.588Z,0.90
2022-08-31T11:55:44.187Z,1.10
2022-08-31T11:58:33.695Z,0.70
2022-08-31T12:01:03.263Z,1.02
2022-08-31T12:03:39.849Z,1.20
2022-08-31T12:06:09.861Z,0.98
2022-08-31T12:08:52.207Z,1.10
2022-08-31T12:11:24.658Z,1.00
2022-08-31T12:14:14.280Z,1.00
2022-08-31T12:16:59.797Z,1.10
2022-08-31T12:20:01.911Z,1.00
2022-08-31T12:22:53.796Z,1.10
2022-08-31T12:25:23.756Z,1.13
2022-08-31T12:28:09.453Z,1.10
2022-08-31T12:30:36.687Z,1.02
2022-08-31T12:33:15.610Z,1.08
2022-08-31T12:35:43.402Z,1.05
2022-08-31T12:38:17.516Z,1.17
2022-08-31T12:40:46.031Z,0.90
2022-08-31T12:43:17.298Z,0.90
2022-08-31T12:45:44.441Z,1.00
2022-08-31T12:48:11.546Z,0.80
2022-08-31T12:50:43.455Z,0.90
2022-08-31T12:53:13.765Z,1.00
2022-08-31T12:55:47.985Z,1.08
2022-08-31T12:58:15.133Z,1.05
2022-08-31T13:00:45.481Z,1.10
2022-08-31T13:03:18.765Z,0.90
2022-08-31T13:06:06.463Z,0.90
2022-08-31T13:08:54.162Z,0.90
2022-08-31T13:11:26.388Z,1.20
2022-08-31T13:14:24.141Z,1.05
2022-08-31T13:16:53.408Z,1.00
2022-08-31T13:19:31.777Z,1.02
2022-08-31T13:21:59.025Z,1.30
2022-08-31T13:24:28.971Z,1.13
2022-08-31T13:27:15.016Z,1.30
2022-08-31T13:29:45.396Z,1.10
2022-08-31T13:32:14.855Z,1.10
2022-08-31T13:34:42.215Z,1.10
2022-08-31T13:37:15.151Z,1.20
2022-08-31T13:39:45.932Z,1.20
2022-08-31T13:42:31.956Z,1.23
2022-08-31T13:45:01.391Z,1.17
2022-08-31T13:47:55.325Z,1.10
2022-08-31T13:50:25.644Z,1.13
2022-08-31T13:53:22.632Z,1.00
2022-08-31T13:55:43.683Z,1.30
2022-08-31T13:58:29.766Z,1.30
2022-08-31T14:01:17.052Z,1.20
2022-08-31T14:03:55.601Z,1.15
2022-08-31T14:06:44.241Z,1.05
2022-08-31T14:09:15.898Z,1.10
2022-08-31T14:12:00.128Z,1.08
2022-08-31T14:14:40.126Z,1.20
2022-08-31T14:17:08.959Z,1.13
2022-08-31T14:19:40.048Z,1.10
2022-08-31T14:22:27.243Z,1.02
2022-08-31T14:24:55.617Z,1.10
2022-08-31T14:27:23.267Z,1.40
2022-08-31T14:29:52.266Z,1.10
2022-08-31T14:32:22.040Z,1.10
2022-08-31T14:34:49.336Z,1.10
2022-08-31T14:37:23.116Z,1.20
2022-08-31T14:39:51.807Z,1.10
2022-08-31T14:42:26.752Z,1.10
2022-08-31T14:44:58.854Z,1.00
2022-08-31T14:47:27.755Z,1.10
2022-08-31T14:49:58.800Z,0.95
2022-08-31T14:52:26.868Z,1.20
2022-08-31T14:54:54.216Z,1.00
2022-08-31T14:57:25.535Z,1.10
2022-08-31T14:59:59.617Z,1.10
2022-08-31T15:02:28.017Z,0.83
2022-08-31T15:05:01.228Z,0.95
2022-08-31T15:07:32.179Z,0.90
2022-08-31T15:09:59.842Z,2.88
2022-08-31T15:12:27.214Z,4.40
2022-08-31T15:14:59.875Z,3.88
2022-08-31T15:17:28.455Z,2.50
2022-08-31T15:19:55.833Z,2.72
2022-08-31T15:22:26.311Z,3.83
2022-08-31T15:24:54.415Z,1.77
2022-08-31T15:27:22.466Z,1.60
2022-08-31T15:29:58.908Z,2.72
2022-08-31T15:32:26.095Z,1.30
2022-08-31T15:34:56.858Z,1.00
2022-08-31T15:37:27.327Z,1.00
2022-08-31T15:39:58.787Z,0.80
2022-08-31T15:42:25.938Z,1.13
2022-08-31T15:44:57.081Z,0.90
2022-08-31T15:47:45.334Z,1.30
2022-08-31T15:50:12.817Z,0.90
2022-08-31T15:52:50.952Z,1.13
2022-08-31T15:55:23.254Z,0.90
2022-08-31T15:57:54.119Z,1.00
2022-08-31T16:00:23.502Z,0.70
2022-08-31T16:02:55.907Z,1.03
2022-08-31T16:05:23.555Z,1.03
2022-08-31T16:07:52.041Z,1.00
2022-08-31T16:10:20.290Z,1.10
2022-08-31T16:12:50.403Z,1.10
2022-08-31T16:15:18.174Z,1.10
2022-08-31T16:17:45.339Z,1.10
2022-08-31T16:20:13.944Z,1.10
2022-08-31T16:22:42.177Z,1.13
2022-08-31T16:25:11.619Z,1.20
2022-08-31T16:27:40.846Z,0.82
2022-08-31T16:30:09.087Z,1.00
2022-08-31T16:32:36.288Z,1.00
2022-08-31T16:35:05.508Z,1.13
2022-08-31T16:37:33.105Z,0.90
2022-08-31T16:40:00.664Z,1.10
2022-08-31T16:42:28.671Z,1.05
2022-08-31T16:45:01.229Z,1.10
2022-08-31T16:47:29.378Z,0.98
2022-08-31T16:49:58.977Z,1.00
2022-08-31T16:52:27.439Z,1.10
2022-08-31T16:54:57.125Z,1.02
2022-08-31T16:57:26.990Z,0.93
2022-08-31T16:59:54.896Z,0.90
2022-08-31T17:02:23.135Z,1.17
2022-08-31T17:04:53.296Z,0.98
2022-08-31T17:07:22.269Z,1.30
2022-08-31T17:09:49.551Z,1.10
2022-08-31T17:12:19.285Z,1.13
2022-08-31T17:14:52.106Z,1.17
2022-08-31T17:17:20.998Z,1.17
2022-08-31T17:19:48.382Z,1.33
2022-08-31T17:22:23.347Z,1.20
2022-08-31T17:24:56.246Z,0.90
2022-08-31T17:27:24.230Z,1.23
2022-08-31T17:29:52.646Z,1.10
2022-08-31T17:32:21.198Z,1.13
2022-08-31T17:34:51.557Z,1.17
2022-08-31T17:37:20.962Z,1.20
2022-08-31T17:39:50.609Z,1.30
2022-08-31T17:42:18.297Z,1.07
2022-08-31T17:44:48.056Z,1.30
2022-08-31T17:47:15.232Z,1.17
2022-08-31T17:49:49.033Z,1.23
2022-08-31T17:52:16.759Z,1.13
2022-08-31T17:54:45.336Z,1.10
2022-08-31T17:57:15.147Z,1.30
2022-08-31T17:59:44.079Z,1.10
2022-08-31T18:02:12.676Z,1.20
2022-08-31T18:04:40.438Z,1.23
2022-08-31T18:07:09.082Z,1.30
2022-08-31T18:09:42.771Z,1.20
2022-08-31T18:12:10.235Z,1.20
2022-08-31T18:14:39.121Z,1.20
2022-08-31T18:17:08.596Z,1.20
2022-08-31T18:19:35.882Z,1.13
2022-08-31T18:22:03.383Z,1.20
2022-08-31T18:24:34.040Z,1.30
2022-08-31T18:27:03.854Z,1.30
2022-08-31T18:29:34.073Z,1.40
2022-08-31T18:32:05.313Z,1.20
2022-08-31T18:34:34.305Z,1.10
2022-08-31T18:37:02.209Z,1.10
2022-08-31T18:39:51.102Z,1.30
2022-08-31T18:42:37.828Z,1.30
2022-08-31T18:45:19.130Z,1.10
2022-08-31T18:48:07.046Z,1.20
2022-08-31T18:50:37.047Z,1.07
2022-08-31T18:53:08.140Z,1.20
2022-08-31T18:55:39.492Z,1.40
2022-08-31T18:58:06.649Z,1.23
2022-08-31T19:00:33.948Z,1.40
2022-08-31T19:03:02.493Z,1.30
2022-08-31T19:05:31.482Z,1.20
2022-08-31T19:08:01.769Z,1.47
2022-08-31T19:10:29.221Z,1.20
2022-08-31T19:12:56.673Z,1.30
2022-08-31T19:15:35.146Z,1.20
2022-08-31T19:18:04.437Z,1.30
2022-08-31T19:20:31.777Z,1.20
2022-08-31T19:22:59.307Z,1.40
2022-08-31T19:25:27.407Z,1.20
2022-08-31T19:27:55.729Z,1.50
2022-08-31T19:30:27.924Z,1.30
2022-08-31T19:32:56.397Z,1.70
2022-08-31T19:35:26.115Z,1.47
2022-08-31T19:37:55.407Z,1.30
2022-08-31T19:40:22.794Z,1.70
2022-08-31T19:45:45.710Z,1.47
2022-08-31T19:48:13.476Z,1.40
2022-08-31T19:50:42.524Z,1.40
2022-08-31T19:53:13.467Z,1.30
2022-08-31T19:55:51.022Z,1.40
2022-08-31T19:58:19.330Z,1.37
2022-08-31T20:00:48.384Z,1.27
2022-08-31T20:03:16.207Z,1.50
2022-08-31T20:05:43.992Z,1.50
2022-08-31T20:08:12.293Z,1.30
2022-08-31T20:10:40.493Z,1.60
2022-08-31T20:13:08.442Z,1.60
2022-08-31T20:15:38.771Z,1.30
2022-08-31T20:18:07.610Z,1.40
2022-08-31T20:20:45.259Z,1.40
2022-08-31T20:23:17.121Z,1.40
2022-08-31T20:25:49.287Z,1.50
2022-08-31T20:28:17.509Z,1.70
2022-08-31T20:30:45.487Z,1.50
2022-08-31T20:33:12.650Z,1.50
2022-08-31T20:35:42.551Z,1.50
2022-08-31T20:38:14.289Z,1.40
2022-08-31T20:40:42.410Z,1.23
2022-08-31T20:43:11.779Z,1.50
2022-08-31T20:45:39.539Z,1.53
2022-08-31T20:48:25.723Z,1.60
2022-08-31T20:50:53.041Z,1.70
2022-08-31T20:53:38.815Z,1.60
2022-08-31T20:56:08.051Z,1.70
2022-08-31T20:58:35.520Z,1.53
2022-08-31T21:01:06.974Z,1.60
2022-08-31T21:03:34.915Z,1.57
2022-08-31T21:06:03.667Z,1.50
2022-08-31T21:08:31.007Z,1.70
2022-08-31T21:10:58.241Z,1.80
2022-08-31T21:13:25.441Z,1.60
2022-08-31T21:15:52.635Z,1.43
2022-08-31T21:18:19.923Z,1.40
2022-08-31T21:20:47.397Z,2.10
2022-08-31T21:23:15.233Z,2.20
2022-08-31T21:25:43.892Z,1.90
2022-08-31T21:28:14.006Z,1.70
2022-08-31T21:30:41.266Z,1.90
2022-08-31T21:33:08.445Z,1.50
2022-08-31T21:35:35.684Z,1.50
2022-08-31T21:38:03.283Z,1.60
2022-08-31T21:40:31.224Z,1.40
2022-08-31T21:42:58.561Z,1.30
2022-08-31T21:45:25.761Z,1.40
2022-08-31T21:47:52.928Z,1.50
2022-08-31T21:50:20.157Z,1.60
2022-08-31T21:52:47.339Z,1.43
2022-08-31T21:55:17.989Z,1.77
2022-08-31T21:57:45.229Z,1.60
2022-08-31T22:00:16.049Z,1.63
2022-08-31T22:02:46.897Z,1.50
2022-08-31T22:05:14.334Z,1.63
2022-08-31T22:07:41.614Z,1.53
2022-08-31T22:10:08.958Z,1.40
2022-08-31T22:12:36.115Z,1.70
2022-08-31T22:15:06.593Z,1.40
2022-08-31T22:17:59.255Z,1.50
2022-08-31T22:20:22.915Z,1.30
2022-08-31T22:22:51.501Z,1.40
2022-08-31T22:25:18.806Z,1.37
2022-08-31T22:27:46.717Z,1.30
2022-08-31T22:30:14.180Z,1.40
2022-08-31T22:32:41.887Z,1.40
2022-08-31T22:35:09.151Z,1.30
2022-08-31T22:37:38.354Z,1.13
2022-08-31T22:40:05.717Z,1.50
2022-08-31T22:42:32.966Z,1.20
2022-08-31T22:45:00.420Z,1.37
2022-08-31T22:47:27.586Z,1.20
2022-08-31T22:49:54.795Z,1.40
2022-08-31T22:52:21.943Z,1.43
2022-08-31T22:54:49.131Z,1.23
2022-08-31T22:57:16.963Z,1.30
2022-08-31T22:59:44.112Z,1.30
2022-08-31T23:02:11.291Z,1.17
2022-08-31T23:04:43.763Z,1.20
2022-08-31T23:07:16.342Z,1.20
2022-08-31T23:09:44.407Z,1.30
2022-08-31T23:12:11.602Z,1.37
2022-08-31T23:14:41.132Z,1.50
2022-08-31T23:17:10.588Z,1.30
2022-08-31T23:19:40.339Z,1.40
2022-08-31T23:22:09.305Z,1.20
2022-08-31T23:24:42.196Z,1.20
2022-08-31T23:27:10.489Z,1.30
2022-08-31T23:29:47.158Z,1.20
2022-08-31T23:32:16.133Z,1.20
2022-08-31T23:34:43.288Z,1.20
2022-08-31T23:37:11.561Z,1.20
2022-08-31T23:39:40.665Z,1.00
2022-08-31T23:42:12.198Z,1.10
2022-08-31T23:44:42.620Z,0.83
2022-08-31T23:47:13.866Z,1.10
2022-08-31T23:49:42.395Z,1.10
2022-08-31T23:52:11.821Z,1.00
2022-08-31T23:54:39.369Z,0.90
2022-08-31T23:57:08.497Z,1.00
2022-08-31T23:59:55.244Z,0.90
